sensor_id;sensor_type;location;lat;lon;timestamp;pressure;altitude;pressure_sealevel;temperature;humidity
27980;BME280;15315;50.836;4.430;2023-02-07T00:03:28;103365.13;;;7.83;82.24
27980;BME280;15315;50.836;4.430;2023-02-07T00:13:28;103352.22;;;7.49;87.83
27980;BME280;15315;50.836;4.430;2023-02-07T00:23:29;103335.84;;;7.09;95.53
27980;BME280;15315;50.836;4.430;2023-02-07T00:33:29;103341.38;;;7.56;90.63
27980;BME280;15315;50.836;4.430;2023-02-07T00:43:30;103325.81;;;7.20;94.08
27980;BME280;15315;50.836;4.430;2023-02-07T00:53:31;103323.22;;;7.73;86.92
27980;BME280;15315;50.836;4.430;2023-02-07T01:03:32;103329.44;;;7.17;90.12
27980;BME280;15315;50.836;4.430;2023-02-07T01:13:32;103333.06;;;7.15;90.73
27980;BME280;15315;50.836;4.430;2023-02-07T01:23:33;103329.44;;;6.49;97.88
27980;BME280;15315;50.836;4.430;2023-02-07T01:33:34;103331.63;;;6.12;100.00
27980;BME280;15315;50.836;4.430;2023-02-07T01:43:52;103326.94;;;7.05;91.53
27980;BME280;15315;50.836;4.430;2023-02-07T01:53:55;103333.31;;;6.97;91.11
27980;BME280;15315;50.836;4.430;2023-02-07T02:03:56;103334.63;;;6.64;94.87
27980;BME280;15315;50.836;4.430;2023-02-07T02:45:02;103324.00;;;6.56;91.69
27980;BME280;15315;50.836;4.430;2023-02-07T02:55:06;103316.41;;;5.06;100.00
27980;BME280;15315;50.836;4.430;2023-02-07T03:15:49;103303.59;;;5.50;100.00
27980;BME280;15315;50.836;4.430;2023-02-07T03:25:52;103302.34;;;5.92;96.01
27980;BME280;15315;50.836;4.430;2023-02-07T03:36:16;103306.63;;;6.16;94.33
27980;BME280;15315;50.836;4.430;2023-02-07T03:46:18;103289.28;;;5.58;95.36
27980;BME280;15315;50.836;4.430;2023-02-07T03:56:19;103300.19;;;5.32;97.91
27980;BME280;15315;50.836;4.430;2023-02-07T04:06:20;103299.78;;;5.80;90.50
27980;BME280;15315;50.836;4.430;2023-02-07T04:16:20;103301.56;;;5.83;90.18
27980;BME280;15315;50.836;4.430;2023-02-07T04:26:21;103304.50;;;5.51;92.34
27980;BME280;15315;50.836;4.430;2023-02-07T04:36:21;103308.09;;;5.45;90.78
27980;BME280;15315;50.836;4.430;2023-02-07T04:46:21;103313.56;;;5.32;91.20
27980;BME280;15315;50.836;4.430;2023-02-07T04:56:22;103309.25;;;5.14;92.21
27980;BME280;15315;50.836;4.430;2023-02-07T05:06:22;103306.38;;;5.40;91.02
27980;BME280;15315;50.836;4.430;2023-02-07T05:16:23;103300.09;;;5.44;89.52
27980;BME280;15315;50.836;4.430;2023-02-07T05:26:23;103310.97;;;5.24;91.02
27980;BME280;15315;50.836;4.430;2023-02-07T05:36:23;103320.88;;;5.04;91.52
27980;BME280;15315;50.836;4.430;2023-02-07T05:46:24;103337.69;;;5.26;90.30
27980;BME280;15315;50.836;4.430;2023-02-07T05:56:24;103348.69;;;4.68;90.43
27980;BME280;15315;50.836;4.430;2023-02-07T06:06:24;103345.94;;;4.83;91.52
27980;BME280;15315;50.836;4.430;2023-02-07T06:16:25;103370.78;;;5.05;88.06
27980;BME280;15315;50.836;4.430;2023-02-07T06:26:25;103368.31;;;4.52;90.67
27980;BME280;15315;50.836;4.430;2023-02-07T06:36:26;103382.44;;;4.81;88.08
27980;BME280;15315;50.836;4.430;2023-02-07T06:46:26;103389.72;;;4.45;89.99
27980;BME280;15315;50.836;4.430;2023-02-07T06:56:27;103387.91;;;4.54;88.77
27980;BME280;15315;50.836;4.430;2023-02-07T07:06:27;103392.41;;;4.40;90.76
27980;BME280;15315;50.836;4.430;2023-02-07T07:16:27;103395.06;;;4.51;90.16
27980;BME280;15315;50.836;4.430;2023-02-07T07:26:28;103404.78;;;4.67;89.10
27980;BME280;15315;50.836;4.430;2023-02-07T07:36:29;103416.44;;;4.37;91.88
27980;BME280;15315;50.836;4.430;2023-02-07T07:46:30;103409.28;;;4.03;93.16
27980;BME280;15315;50.836;4.430;2023-02-07T07:56:30;103415.53;;;4.31;92.95
27980;BME280;15315;50.836;4.430;2023-02-07T08:06:31;103424.38;;;4.67;89.70
27980;BME280;15315;50.836;4.430;2023-02-07T08:16:31;103418.06;;;4.96;88.77
27980;BME280;15315;50.836;4.430;2023-02-07T08:26:32;103422.31;;;5.36;88.60
27980;BME280;15315;50.836;4.430;2023-02-07T08:36:32;103422.41;;;5.19;89.11
27980;BME280;15315;50.836;4.430;2023-02-07T08:46:32;103418.72;;;5.44;90.58
27980;BME280;15315;50.836;4.430;2023-02-07T08:56:33;103422.78;;;6.00;88.77
27980;BME280;15315;50.836;4.430;2023-02-07T09:06:33;103419.34;;;5.81;90.05
27980;BME280;15315;50.836;4.430;2023-02-07T09:16:33;103423.63;;;6.02;89.99
27980;BME280;15315;50.836;4.430;2023-02-07T09:26:34;103410.06;;;6.28;89.26
27980;BME280;15315;50.836;4.430;2023-02-07T09:36:35;103403.03;;;7.62;84.45
27980;BME280;15315;50.836;4.430;2023-02-07T09:46:45;103405.63;;;7.70;79.89
27980;BME280;15315;50.836;4.430;2023-02-07T09:56:47;103425.28;;;7.05;77.83
27980;BME280;15315;50.836;4.430;2023-02-07T10:06:55;103408.06;;;7.22;77.88
27980;BME280;15315;50.836;4.430;2023-02-07T10:27:25;103420.06;;;6.96;75.66
27980;BME280;15315;50.836;4.430;2023-02-07T10:37:30;103404.09;;;7.51;72.10
27980;BME280;15315;50.836;4.430;2023-02-07T10:47:37;103395.03;;;7.59;71.23
27980;BME280;15315;50.836;4.430;2023-02-07T10:57:38;103387.84;;;7.60;65.72
27980;BME280;15315;50.836;4.430;2023-02-07T11:07:39;103369.00;;;8.18;67.84
27980;BME280;15315;50.836;4.430;2023-02-07T11:17:46;103362.41;;;8.35;65.42
27980;BME280;15315;50.836;4.430;2023-02-07T11:27:47;103352.56;;;8.79;61.60
27980;BME280;15315;50.836;4.430;2023-02-07T11:38:03;103341.81;;;8.79;61.68
27980;BME280;15315;50.836;4.430;2023-02-07T11:48:05;103339.41;;;9.46;59.34
27980;BME280;15315;50.836;4.430;2023-02-07T11:58:12;103331.78;;;9.28;56.79
27980;BME280;15315;50.836;4.430;2023-02-07T12:08:20;103337.06;;;9.68;57.83
27980;BME280;15315;50.836;4.430;2023-02-07T12:18:33;103338.16;;;9.61;54.51
27980;BME280;15315;50.836;4.430;2023-02-07T12:39:10;103333.09;;;9.82;50.88
27980;BME280;15315;50.836;4.430;2023-02-07T13:09:38;103306.78;;;9.58;49.51
27980;BME280;15315;50.836;4.430;2023-02-07T13:19:50;103304.13;;;9.57;49.45
27980;BME280;15315;50.836;4.430;2023-02-07T13:29:53;103297.44;;;9.38;52.55
27980;BME280;15315;50.836;4.430;2023-02-07T13:40:02;103301.91;;;10.08;55.09
27980;BME280;15315;50.836;4.430;2023-02-07T14:10:48;103293.78;;;9.75;55.78
27980;BME280;15315;50.836;4.430;2023-02-07T14:20:59;103284.34;;;9.58;55.63
27980;BME280;15315;50.836;4.430;2023-02-07T14:31:22;103283.44;;;9.93;54.64
27980;BME280;15315;50.836;4.430;2023-02-07T14:41:28;103279.06;;;9.88;54.40
27980;BME280;15315;50.836;4.430;2023-02-07T15:01:42;103286.38;;;10.17;53.29
27980;BME280;15315;50.836;4.430;2023-02-07T15:11:43;103279.25;;;9.81;53.00
27980;BME280;15315;50.836;4.430;2023-02-07T15:21:44;103291.69;;;9.86;52.38
27980;BME280;15315;50.836;4.430;2023-02-07T15:31:45;103285.09;;;9.64;52.00
27980;BME280;15315;50.836;4.430;2023-02-07T15:41:47;103285.88;;;9.69;51.83
27980;BME280;15315;50.836;4.430;2023-02-07T15:51:48;103284.47;;;9.53;50.50
27980;BME280;15315;50.836;4.430;2023-02-07T16:01:55;103290.06;;;9.44;50.23
27980;BME280;15315;50.836;4.430;2023-02-07T16:11:56;103289.53;;;9.30;50.30
27980;BME280;15315;50.836;4.430;2023-02-07T16:32:01;103295.66;;;8.97;50.56
27980;BME280;15315;50.836;4.430;2023-02-07T16:42:04;103307.72;;;9.20;50.59
27980;BME280;15315;50.836;4.430;2023-02-07T16:52:05;103320.00;;;9.32;50.48
27980;BME280;15315;50.836;4.430;2023-02-07T17:02:14;103319.63;;;9.10;51.40
27980;BME280;15315;50.836;4.430;2023-02-07T17:12:15;103318.38;;;9.25;52.11
27980;BME280;15315;50.836;4.430;2023-02-07T17:22:18;103333.59;;;9.26;52.96
27980;BME280;15315;50.836;4.430;2023-02-07T17:32:21;103325.19;;;9.41;52.51
27980;BME280;15315;50.836;4.430;2023-02-07T17:42:21;103325.97;;;9.08;53.16
27980;BME280;15315;50.836;4.430;2023-02-07T17:52:22;103320.56;;;8.65;54.47
27980;BME280;15315;50.836;4.430;2023-02-07T18:02:22;103329.91;;;8.90;54.56
27980;BME280;15315;50.836;4.430;2023-02-07T18:12:22;103321.03;;;8.44;56.31
27980;BME280;15315;50.836;4.430;2023-02-07T18:22:23;103316.88;;;8.71;56.20
27980;BME280;15315;50.836;4.430;2023-02-07T18:32:23;103333.53;;;8.46;56.83
27980;BME280;15315;50.836;4.430;2023-02-07T18:42:24;103338.41;;;8.26;58.06
27980;BME280;15315;50.836;4.430;2023-02-07T18:52:25;103344.53;;;7.84;57.50
27980;BME280;15315;50.836;4.430;2023-02-07T19:02:26;103348.44;;;8.14;56.73
27980;BME280;15315;50.836;4.430;2023-02-07T19:12:26;103355.53;;;7.67;57.55
27980;BME280;15315;50.836;4.430;2023-02-07T19:22:27;103356.34;;;7.13;59.93
27980;BME280;15315;50.836;4.430;2023-02-07T19:32:28;103353.13;;;7.49;58.83
27980;BME280;15315;50.836;4.430;2023-02-07T19:42:29;103348.69;;;7.47;58.63
27980;BME280;15315;50.836;4.430;2023-02-07T19:52:29;103342.69;;;7.28;59.40
27980;BME280;15315;50.836;4.430;2023-02-07T20:02:29;103346.91;;;6.82;61.50
27980;BME280;15315;50.836;4.430;2023-02-07T20:12:30;103337.19;;;6.74;61.73
27980;BME280;15315;50.836;4.430;2023-02-07T20:22:31;103330.47;;;6.39;62.83
27980;BME280;15315;50.836;4.430;2023-02-07T20:32:31;103320.63;;;6.41;63.20
27980;BME280;15315;50.836;4.430;2023-02-07T20:42:31;103307.38;;;6.29;63.31
27980;BME280;15315;50.836;4.430;2023-02-07T20:52:32;103288.34;;;6.51;62.56
27980;BME280;15315;50.836;4.430;2023-02-07T21:02:32;103271.50;;;6.42;62.76
27980;BME280;15315;50.836;4.430;2023-02-07T21:12:33;103276.91;;;6.36;62.55
27980;BME280;15315;50.836;4.430;2023-02-07T21:22:34;103286.06;;;6.17;63.22
27980;BME280;15315;50.836;4.430;2023-02-07T21:32:52;103277.00;;;6.28;62.54
27980;BME280;15315;50.836;4.430;2023-02-07T21:42:56;103273.94;;;5.76;64.92
27980;BME280;15315;50.836;4.430;2023-02-07T21:53:17;103279.13;;;5.94;64.44
27980;BME280;15315;50.836;4.430;2023-02-07T22:03:18;103277.47;;;5.83;64.50
27980;BME280;15315;50.836;4.430;2023-02-07T22:13:18;103285.00;;;5.40;66.18
27980;BME280;15315;50.836;4.430;2023-02-07T22:23:19;103274.06;;;5.64;64.80
27980;BME280;15315;50.836;4.430;2023-02-07T22:33:19;103275.84;;;5.65;64.69
27980;BME280;15315;50.836;4.430;2023-02-07T22:43:21;103288.47;;;5.49;65.22
27980;BME280;15315;50.836;4.430;2023-02-07T22:53:22;103274.38;;;5.26;66.24
27980;BME280;15315;50.836;4.430;2023-02-07T23:03:22;103287.91;;;5.02;67.47
27980;BME280;15315;50.836;4.430;2023-02-07T23:13:23;103294.03;;;5.21;66.50
27980;BME280;15315;50.836;4.430;2023-02-07T23:23:23;103297.69;;;5.08;66.69
27980;BME280;15315;50.836;4.430;2023-02-07T23:33:26;103296.78;;;5.12;67.23
27980;BME280;15315;50.836;4.430;2023-02-07T23:43:26;103272.59;;;5.27;66.49
27980;BME280;15315;50.836;4.430;2023-02-07T23:53:27;103268.69;;;4.29;69.68
